Time,TemperatureF,DewpointF,PressureIn,WindDirection,WindDirectionDegrees,WindSpeedMPH,WindSpeedGustMPH,Humidity,HourlyPrecipIn,Conditions,Clouds,dailyrainin,SolarRadiationWatts/m^2,SoftwareType,DateUTC
2013-06-01 19:19:00,83.3,57.8,29.79,SW,221,1.0,1.0,42,0.00,,,0.00,0,Wunderground v.1.15,2013-06-02 02:19:00,
2013-06-01 19:24:00,83.2,58.4,29.79,SW,221,0.0,1.0,43,0.00,,,0.00,0,Wunderground v.1.15,2013-06-02 02:24:00,
2013-06-01 19:29:00,83.0,58.2,29.79,SW,214,1.0,1.0,43,0.00,,,0.00,0,Wunderground v.1.15,2013-06-02 02:29:00,
2013-06-01 19:34:00,82.7,56.6,29.79,SSW,196,4.0,4.0,41,0.00,,,0.00,0,Wunderground v.1.15,2013-06-02 02:34:00,
2013-06-01 19:44:00,82.7,55.9,29.79,South,173,1.0,2.0,40,0.00,,,0.00,0,Wunderground v.1.15,2013-06-02 02:44:00,
2013-06-01 19:49:00,82.6,55.8,29.79,SSW,197,2.0,2.0,40,0.00,,,0.00,0,Wunderground v.1.15,2013-06-02 02:49:00,
2013-06-01 19:54:00,82.5,55.7,29.79,South,191,1.0,2.0,40,0.00,,,0.00,0,Wunderground v.1.15,2013-06-02 02:54:00,
2013-06-01 20:04:00,81.8,55.1,29.79,South,179,4.0,4.0,40,0.00,,,0.00,0,Wunderground v.1.15,2013-06-02 03:04:00,
2013-06-01 20:09:00,81.4,55.4,29.79,South,188,0.0,0.0,41,0.00,,,0.00,0,Wunderground v.1.15,2013-06-02 03:09:00,
2013-06-01 20:19:00,80.5,54.6,29.79,SSW,203,1.0,1.0,41,0.00,,,0.00,0,Wunderground v.1.15,2013-06-02 03:19:00,
2013-06-01 20:24:00,79.9,54.8,29.79,SSW,207,3.0,3.0,42,0.00,,,0.00,0,Wunderground v.1.15,2013-06-02 03:24:00,
2013-06-01 20:29:00,79.6,55.8,29.79,SSW,197,3.0,3.0,44,0.00,,,0.00,0,Wunderground v.1.15,2013-06-02 03:29:00,
2013-06-01 20:39:00,79.0,53.9,29.79,SSW,202,3.0,3.0,42,0.00,,,0.00,0,Wunderground v.1.15,2013-06-02 03:39:00,
2013-06-01 20:44:00,78.9,54.5,29.79,SSW,199,3.0,3.0,43,0.00,,,0.00,0,Wunderground v.1.15,2013-06-02 03:44:00,
2013-06-01 20:49:00,78.6,54.2,29.79,SSW,194,3.0,3.0,43,0.00,,,0.00,0,Wunderground v.1.15,2013-06-02 03:49:00,
2013-06-01 20:54:00,78.4,53.4,29.79,SSW,201,2.0,3.0,42,0.00,,,0.00,0,Wunderground v.1.15,2013-06-02 03:54:00,
2013-06-01 20:59:00,78.3,53.3,29.79,SSW,196,2.0,2.0,42,0.00,,,0.00,0,Wunderground v.1.15,2013-06-02 03:59:00,
2013-06-01 21:04:00,78.0,53.0,29.79,SSW,203,1.0,2.0,42,0.00,,,0.00,0,Wunderground v.1.15,2013-06-02 04:04:00,
2013-06-01 21:09:00,78.0,51.7,29.79,South,183,1.0,1.0,40,0.00,,,0.00,0,Wunderground v.1.15,2013-06-02 04:09:00,
2013-06-01 21:19:00,77.8,50.9,29.79,South,187,2.0,2.0,39,0.00,,,0.00,0,Wunderground v.1.15,2013-06-02 04:19:00,
2013-06-01 21:24:00,77.6,50.7,29.79,SSW,201,1.0,2.0,39,0.00,,,0.00,0,Wunderground v.1.15,2013-06-02 04:24:00,
2013-06-01 21:34:00,77.3,50.4,29.80,SSW,194,0.0,1.0,39,0.00,,,0.00,0,Wunderground v.1.15,2013-06-02 04:34:00,
2013-06-01 21:44:00,76.5,51.7,29.80,SSW,194,0.0,0.0,42,0.00,,,0.00,0,Wunderground v.1.15,2013-06-02 04:44:00,
2013-06-01 21:49:00,76.2,52.1,29.80,SSW,194,1.0,1.0,43,0.00,,,0.00,0,Wunderground v.1.15,2013-06-02 04:49:00,
2013-06-01 21:54:00,75.7,52.2,29.80,South,187,4.0,4.0,44,0.00,,,0.00,0,Wunderground v.1.15,2013-06-02 04:54:00,
2013-06-01 22:04:00,74.8,55.5,29.81,SSW,213,0.0,1.0,51,0.00,,,0.00,0,Wunderground v.1.15,2013-06-02 05:04:00,
2013-06-01 22:14:00,74.3,55.5,29.81,SSW,204,0.0,0.0,52,0.00,,,0.00,0,Wunderground v.1.15,2013-06-02 05:14:00,
2013-06-01 22:24:00,74.3,56.1,29.81,SSW,194,3.0,3.0,53,0.00,,,0.00,0,Wunderground v.1.15,2013-06-02 05:24:00,
2013-06-01 22:34:00,74.0,56.3,29.81,SSW,192,1.0,4.0,54,0.00,,,0.00,0,Wunderground v.1.15,2013-06-02 05:34:00,
2013-06-01 22:39:00,73.6,56.4,29.81,SSW,197,2.0,2.0,55,0.00,,,0.00,0,Wunderground v.1.15,2013-06-02 05:39:00,
2013-06-01 22:44:00,73.0,56.4,29.80,SSW,198,0.0,2.0,56,0.00,,,0.00,0,Wunderground v.1.15,2013-06-02 05:44:00,
2013-06-01 22:49:00,72.4,56.8,29.80,SSW,198,1.0,1.0,58,0.00,,,0.00,0,Wunderground v.1.15,2013-06-02 05:49:00,
2013-06-01 22:54:00,71.9,56.8,29.80,SSW,198,1.0,1.0,59,0.00,,,0.00,0,Wunderground v.1.15,2013-06-02 05:54:00,
2013-06-01 23:04:00,71.2,56.6,29.81,SSW,198,0.0,1.0,60,0.00,,,0.00,0,Wunderground v.1.15,2013-06-02 06:04:00,
2013-06-01 23:09:00,70.9,56.8,29.80,SSW,198,0.0,0.0,61,0.00,,,0.00,0,Wunderground v.1.15,2013-06-02 06:09:00,
2013-06-01 23:19:00,70.4,56.8,29.81,SSW,198,0.0,0.0,62,0.00,,,0.00,0,Wunderground v.1.15,2013-06-02 06:19:00,
2013-06-01 23:24:00,70.1,57.4,29.81,SSW,198,0.0,0.0,64,0.00,,,0.00,0,Wunderground v.1.15,2013-06-02 06:24:00,
2013-06-01 23:29:00,69.7,57.0,29.81,SSW,198,0.0,0.0,64,0.00,,,0.00,0,Wunderground v.1.15,2013-06-02 06:29:00,
2013-06-01 23:34:00,68.9,56.2,29.81,SSW,198,2.0,2.0,64,0.00,,,0.00,0,Wunderground v.1.15,2013-06-02 06:34:00,
2013-06-01 23:39:00,68.3,56.9,29.81,SSW,198,2.0,2.0,67,0.00,,,0.00,0,Wunderground v.1.15,2013-06-02 06:39:00,
2013-06-01 23:44:00,67.8,56.4,29.81,SSW,198,0.0,2.0,67,0.00,,,0.00,0,Wunderground v.1.15,2013-06-02 06:44:00,
2013-06-01 23:54:00,67.3,54.7,29.81,SSW,198,1.0,1.0,64,0.00,,,0.00,0,Wunderground v.1.15,2013-06-02 06:54:00,
2013-06-01 23:59:00,67.0,53.5,29.81,SSW,198,1.0,1.0,62,0.00,,,0.00,0,Wunderground v.1.15,2013-06-02 06:59:00,